Time;durP1;ratioP1;P1;durP2;ratioP2;P2;SDS_P1;SDS_P2;PMS_P1;PMS_P2;Temp;Humidity;BMP_temperature;BMP_pressure;BME280_temperature;BME280_humidity;BME280_pressure;Samples;Min_cycle;Max_cycle;Signal;HPM_P1;HPM_P2
2023/03/14 00:01:25;;;;;;;0.65;0.20;;;;;;;;;;5012364;28;20124;-77
2023/03/14 00:03:51;;;;;;;0.10;0.10;;;;;;;;;;5027350;28;20025;-77
2023/03/14 00:06:18;;;;;;;0.20;0.20;;;;;;;;;;5012106;28;20033;-75
2023/03/14 00:08:44;;;;;;;0.45;0.30;;;;;;;;;;5013023;28;20026;-76
2023/03/14 00:11:11;;;;;;;0.10;0.10;;;;;;;;;;5016985;28;20032;-81
2023/03/14 00:13:38;;;;;;;0.10;0.10;;;;;;;;;;5021184;28;20037;-81
2023/03/14 00:16:08;;;;;;;0.25;0.25;;;;;;;;;;5022432;28;20044;-79
2023/03/14 00:18:34;;;;;;;0.10;0.10;;;;;;;;;;5017934;28;20026;-77
2023/03/14 00:21:00;;;;;;;0.30;0.30;;;;;;;;;;5011014;28;20340;-76
2023/03/14 00:23:30;;;;;;;0.10;0.10;;;;;;;;;;5012263;28;20033;-81
2023/03/14 00:26:00;;;;;;;0.13;0.10;;;;;;;;;;5016417;28;20030;-80
2023/03/14 00:28:26;;;;;;;0.10;0.10;;;;;;;;;;5012535;28;20037;-77
2023/03/14 00:30:52;;;;;;;0.95;0.17;;;;;;;;;;5043838;28;20111;-77
2023/03/14 00:33:18;;;;;;;0.20;0.10;;;;;;;;;;5049315;28;20021;-77
2023/03/14 00:35:52;;;;;;;0.10;0.10;;;;;;;;;;5032010;28;20037;-78
2023/03/14 00:38:18;;;;;;;0.30;0.10;;;;;;;;;;5027612;28;20442;-78
2023/03/14 00:40:44;;;;;;;0.30;0.30;;;;;;;;;;5028332;28;20107;-77
2023/03/14 00:43:10;;;;;;;0.10;0.10;;;;;;;;;;5026862;28;20018;-79
2023/03/14 00:45:36;;;;;;;0.10;0.10;;;;;;;;;;5026690;28;20033;-77
2023/03/14 00:48:02;;;;;;;0.45;0.45;;;;;;;;;;5026748;28;20037;-79
2023/03/14 00:50:28;;;;;;;0.45;0.38;;;;;;;;;;5025583;28;20087;-77
2023/03/14 00:52:54;;;;;;;0.20;0.20;;;;;;;;;;5027255;28;20456;-77
2023/03/14 00:55:23;;;;;;;0.52;0.20;;;;;;;;;;5026695;28;20041;-77
2023/03/14 00:57:49;;;;;;;0.13;0.13;;;;;;;;;;5026544;28;20092;-77
2023/03/14 01:00:15;;;;;;;0.20;0.20;;;;;;;;;;5027337;28;20376;-77
2023/03/14 01:02:41;;;;;;;0.95;0.10;;;;;;;;;;5027675;28;20057;-78
2023/03/14 01:05:07;;;;;;;0.28;0.28;;;;;;;;;;5027921;28;20076;-80
2023/03/14 01:07:33;;;;;;;0.20;0.20;;;;;;;;;;5027085;28;20037;-77
2023/03/14 01:09:59;;;;;;;0.20;0.20;;;;;;;;;;5028157;28;20053;-78
2023/03/14 01:12:25;;;;;;;1.13;0.15;;;;;;;;;;5026208;28;20060;-81
2023/03/14 01:14:51;;;;;;;1.40;0.20;;;;;;;;;;5028027;28;20105;-81
2023/03/14 01:17:17;;;;;;;0.50;0.50;;;;;;;;;;5027656;28;20108;-81
2023/03/14 01:19:43;;;;;;;0.32;0.25;;;;;;;;;;5026097;28;20040;-79
2023/03/14 01:22:09;;;;;;;0.52;0.20;;;;;;;;;;5025457;28;20025;-80
2023/03/14 01:24:37;;;;;;;0.32;0.30;;;;;;;;;;5026171;28;20022;-79
2023/03/14 01:27:03;;;;;;;1.65;0.20;;;;;;;;;;5025963;28;20021;-77
2023/03/14 01:29:29;;;;;;;1.35;0.20;;;;;;;;;;5025363;28;20540;-76
2023/03/14 01:31:55;;;;;;;0.10;0.10;;;;;;;;;;5027436;28;20438;-77
2023/03/14 01:34:21;;;;;;;0.20;0.17;;;;;;;;;;5025542;28;20112;-77
2023/03/14 01:36:47;;;;;;;0.08;0.08;;;;;;;;;;5025950;28;20082;-77
2023/03/14 01:39:13;;;;;;;2.10;0.20;;;;;;;;;;5024646;28;20474;-78
2023/03/14 01:41:40;;;;;;;0.10;0.10;;;;;;;;;;5026484;28;20030;-77
2023/03/14 01:44:06;;;;;;;3.60;0.20;;;;;;;;;;5024587;28;20548;-77
2023/03/14 01:46:35;;;;;;;0.10;0.10;;;;;;;;;;5026956;28;20032;-77
2023/03/14 01:49:01;;;;;;;0.10;0.10;;;;;;;;;;5026002;28;20359;-78
2023/03/14 01:51:33;;;;;;;0.20;0.20;;;;;;;;;;5025589;28;20296;-78
2023/03/14 01:54:03;;;;;;;0.43;0.43;;;;;;;;;;5024713;28;20025;-79
2023/03/14 01:56:29;;;;;;;;;;;;;;;;;;5024862;28;20091;-78
2023/03/14 01:58:55;;;;;;;0.10;0.10;;;;;;;;;;5025896;28;19913;-78
2023/03/14 02:01:24;;;;;;;0.10;0.10;;;;;;;;;;5025901;28;20030;-77
2023/03/14 02:03:59;;;;;;;0.20;0.20;;;;;;;;;;5025885;28;20033;-78
2023/03/14 02:06:28;;;;;;;1.70;0.93;;;;;;;;;;5025606;28;20137;-78
2023/03/14 02:08:54;;;;;;;0.20;0.15;;;;;;;;;;5024816;28;20425;-78
2023/03/14 02:11:20;;;;;;;0.05;0.05;;;;;;;;;;5026009;28;20025;-78
2023/03/14 02:13:46;;;;;;;0.20;0.20;;;;;;;;;;5024972;28;20026;-78
2023/03/14 02:16:12;;;;;;;0.10;0.10;;;;;;;;;;5026192;28;20043;-79
2023/03/14 02:18:40;;;;;;;0.20;0.20;;;;;;;;;;5026926;28;20053;-74
2023/03/14 02:21:12;;;;;;;0.15;0.15;;;;;;;;;;5028258;28;20363;-75
2023/03/14 02:23:52;;;;;;;1.38;0.30;;;;;;;;;;5030271;28;20017;-76
2023/03/14 02:26:28;;;;;;;0.20;0.20;;;;;;;;;;5029609;28;20026;-75
2023/03/14 02:28:54;;;;;;;2.05;0.30;;;;;;;;;;5029134;28;20075;-76
2023/03/14 02:31:22;;;;;;;0.35;0.20;;;;;;;;;;5029476;28;20030;-74
2023/03/14 02:33:48;;;;;;;2.85;0.40;;;;;;;;;;5028928;28;20036;-75
2023/03/14 02:36:14;;;;;;;1.17;0.30;;;;;;;;;;5029350;28;20271;-75
2023/03/14 02:38:46;;;;;;;0.77;0.55;;;;;;;;;;5029213;28;20021;-75
2023/03/14 02:41:12;;;;;;;0.20;0.20;;;;;;;;;;5028868;28;20574;-75
2023/03/14 02:43:38;;;;;;;1.58;0.50;;;;;;;;;;5028596;28;20520;-75
2023/03/14 02:46:05;;;;;;;1.35;0.55;;;;;;;;;;5028247;28;20021;-75
2023/03/14 02:48:37;;;;;;;0.20;0.20;;;;;;;;;;5029576;28;20064;-75
2023/03/14 02:51:03;;;;;;;0.43;0.30;;;;;;;;;;5030008;28;20017;-74
2023/03/14 02:53:32;;;;;;;2.53;0.52;;;;;;;;;;5029203;28;20104;-74
2023/03/14 02:55:58;;;;;;;0.30;0.30;;;;;;;;;;5028597;28;20045;-74
2023/03/14 02:58:24;;;;;;;0.77;0.30;;;;;;;;;;5029121;28;20025;-74
2023/03/14 03:00:50;;;;;;;0.95;0.40;;;;;;;;;;5029291;28;20052;-75
2023/03/14 03:03:17;;;;;;;0.30;0.30;;;;;;;;;;5028451;28;20087;-74
2023/03/14 03:05:43;;;;;;;1.27;0.30;;;;;;;;;;5026593;28;20040;-75
2023/03/14 03:08:09;;;;;;;1.27;0.40;;;;;;;;;;5028717;28;20102;-74
2023/03/14 03:10:35;;;;;;;0.28;0.25;;;;;;;;;;5028385;28;20028;-74
2023/03/14 03:13:01;;;;;;;2.28;0.68;;;;;;;;;;5026701;28;20079;-74
2023/03/14 03:15:28;;;;;;;1.65;0.30;;;;;;;;;;5026619;28;20030;-73
2023/03/14 03:17:54;;;;;;;0.65;0.30;;;;;;;;;;5027170;28;20031;-74
2023/03/14 03:20:22;;;;;;;0.20;0.20;;;;;;;;;;5031451;28;20057;-74
2023/03/14 03:22:49;;;;;;;0.10;0.10;;;;;;;;;;5029729;28;20021;-74
2023/03/14 03:25:15;;;;;;;0.63;0.63;;;;;;;;;;5028395;28;20052;-74
2023/03/14 03:27:41;;;;;;;0.20;0.20;;;;;;;;;;5029123;28;20094;-74
2023/03/14 03:30:09;;;;;;;0.35;0.30;;;;;;;;;;5029562;28;20030;-74
2023/03/14 03:32:35;;;;;;;0.30;0.30;;;;;;;;;;5027178;28;20030;-74
2023/03/14 03:35:02;;;;;;;0.20;0.20;;;;;;;;;;5028734;28;20045;-74
2023/03/14 03:37:30;;;;;;;0.65;0.30;;;;;;;;;;5031235;28;20048;-74
2023/03/14 03:39:56;;;;;;;0.10;0.10;;;;;;;;;;5031007;28;20032;-74
2023/03/14 03:42:22;;;;;;;0.52;0.10;;;;;;;;;;5030654;28;20030;-74
2023/03/14 03:44:49;;;;;;;0.25;0.20;;;;;;;;;;5030762;28;20494;-74
2023/03/14 03:47:15;;;;;;;4.60;0.28;;;;;;;;;;5029287;28;20029;-74
2023/03/14 03:49:41;;;;;;;0.10;0.10;;;;;;;;;;5029567;28;20390;-74
2023/03/14 03:52:08;;;;;;;0.30;0.25;;;;;;;;;;5031074;28;20045;-74
2023/03/14 03:54:34;;;;;;;0.20;0.20;;;;;;;;;;5031300;28;20072;-74
2023/03/14 03:57:00;;;;;;;0.50;0.17;;;;;;;;;;5030773;28;20037;-74
2023/03/14 03:59:26;;;;;;;3.45;0.30;;;;;;;;;;5029406;28;20041;-74
2023/03/14 04:01:52;;;;;;;2.53;0.98;;;;;;;;;;5030907;28;20551;-74
2023/03/14 04:04:19;;;;;;;0.17;0.15;;;;;;;;;;5030698;28;20077;-74
2023/03/14 04:06:45;;;;;;;0.10;0.10;;;;;;;;;;5030682;28;20071;-74
2023/03/14 04:09:11;;;;;;;4.32;0.60;;;;;;;;;;5030574;28;20033;-75
2023/03/14 04:11:37;;;;;;;2.78;0.40;;;;;;;;;;5030415;28;20056;-74
2023/03/14 04:14:03;;;;;;;0.30;0.20;;;;;;;;;;5030510;28;20037;-74
2023/03/14 04:16:31;;;;;;;0.25;0.25;;;;;;;;;;5029298;28;20033;-74
2023/03/14 04:18:57;;;;;;;1.42;0.40;;;;;;;;;;5030303;28;20018;-74
2023/03/14 04:21:24;;;;;;;0.15;0.15;;;;;;;;;;5030357;28;20203;-74
2023/03/14 04:23:50;;;;;;;1.08;0.80;;;;;;;;;;5030299;28;20385;-74
2023/03/14 04:26:16;;;;;;;0.25;0.25;;;;;;;;;;5028582;28;20075;-73
2023/03/14 04:28:42;;;;;;;1.65;0.20;;;;;;;;;;5028910;28;20045;-73
2023/03/14 04:31:09;;;;;;;0.10;0.10;;;;;;;;;;5030703;28;20104;-74
2023/03/14 04:33:36;;;;;;;0.93;0.45;;;;;;;;;;5031246;28;20030;-74
2023/03/14 04:36:03;;;;;;;0.50;0.20;;;;;;;;;;5029745;28;20033;-74
2023/03/14 04:38:29;;;;;;;2.25;0.30;;;;;;;;;;5027212;28;20032;-74
2023/03/14 04:40:55;;;;;;;0.38;0.30;;;;;;;;;;5028509;28;20022;-74
2023/03/14 04:43:21;;;;;;;0.30;0.30;;;;;;;;;;5027943;28;20022;-74
2023/03/14 04:45:47;;;;;;;0.47;0.47;;;;;;;;;;5028233;28;20087;-74
2023/03/14 04:48:13;;;;;;;0.15;0.10;;;;;;;;;;5028363;28;20025;-74
2023/03/14 04:50:39;;;;;;;0.17;0.10;;;;;;;;;;5028313;28;20022;-74
2023/03/14 04:53:05;;;;;;;0.10;0.10;;;;;;;;;;5028124;28;20112;-74
2023/03/14 04:55:32;;;;;;;0.30;0.30;;;;;;;;;;5026598;28;20037;-75
2023/03/14 04:57:58;;;;;;;1.65;0.10;;;;;;;;;;5028564;28;20028;-74
2023/03/14 05:00:24;;;;;;;0.20;0.20;;;;;;;;;;5030378;28;20113;-75
2023/03/14 05:02:52;;;;;;;0.43;0.25;;;;;;;;;;5028627;28;20104;-74
2023/03/14 05:05:18;;;;;;;0.10;0.10;;;;;;;;;;5028770;28;20033;-74
2023/03/14 05:07:44;;;;;;;0.35;0.20;;;;;;;;;;5028729;28;20351;-75
2023/03/14 05:10:11;;;;;;;0.10;0.10;;;;;;;;;;5029621;28;20120;-75
2023/03/14 05:12:37;;;;;;;0.10;0.10;;;;;;;;;;5029426;28;20025;-74
2023/03/14 05:15:04;;;;;;;1.50;0.32;;;;;;;;;;5028313;28;20095;-74
2023/03/14 05:17:30;;;;;;;0.10;0.10;;;;;;;;;;5028573;28;20389;-74
2023/03/14 05:19:56;;;;;;;1.95;0.20;;;;;;;;;;5028203;28;20037;-75
2023/03/14 05:22:22;;;;;;;0.22;0.10;;;;;;;;;;5029665;28;20025;-74
2023/03/14 05:24:48;;;;;;;0.32;0.20;;;;;;;;;;5029534;28;20025;-75
2023/03/14 05:27:14;;;;;;;1.35;0.35;;;;;;;;;;5028877;28;20095;-74
2023/03/14 05:29:40;;;;;;;0.20;0.20;;;;;;;;;;5027697;28;20135;-75
2023/03/14 05:32:06;;;;;;;0.28;0.20;;;;;;;;;;5029404;28;20033;-75
2023/03/14 05:34:32;;;;;;;0.52;0.40;;;;;;;;;;5029607;28;20393;-75
2023/03/14 05:36:58;;;;;;;1.45;0.17;;;;;;;;;;5029565;28;20481;-75
2023/03/14 05:39:24;;;;;;;2.08;0.10;;;;;;;;;;5029445;28;20030;-73
2023/03/14 05:41:50;;;;;;;0.10;0.10;;;;;;;;;;5027745;28;20029;-75
2023/03/14 05:44:17;;;;;;;0.10;0.10;;;;;;;;;;5029517;28;20060;-74
2023/03/14 05:46:43;;;;;;;0.40;0.40;;;;;;;;;;5029504;28;20025;-74
2023/03/14 05:49:09;;;;;;;1.00;0.20;;;;;;;;;;5029263;28;20474;-74
2023/03/14 05:51:35;;;;;;;1.25;0.17;;;;;;;;;;5029612;28;20031;-74
2023/03/14 05:54:01;;;;;;;0.22;0.22;;;;;;;;;;5029438;28;20408;-74
2023/03/14 05:56:27;;;;;;;0.10;0.10;;;;;;;;;;5029383;28;20466;-73
2023/03/14 05:58:53;;;;;;;0.17;0.17;;;;;;;;;;5031591;28;20069;-74
2023/03/14 06:01:19;;;;;;;0.65;0.20;;;;;;;;;;5033084;28;20032;-74
2023/03/14 06:03:45;;;;;;;2.00;0.20;;;;;;;;;;5032861;28;20026;-74
2023/03/14 06:06:11;;;;;;;0.10;0.10;;;;;;;;;;5032889;28;20033;-74
2023/03/14 06:08:37;;;;;;;0.30;0.30;;;;;;;;;;5032622;28;20033;-74
2023/03/14 06:11:03;;;;;;;0.10;0.10;;;;;;;;;;5032558;28;20025;-73
2023/03/14 06:13:29;;;;;;;0.10;0.10;;;;;;;;;;5032877;28;20079;-74
2023/03/14 06:15:55;;;;;;;0.10;0.10;;;;;;;;;;5031408;28;20534;-74
2023/03/14 06:18:21;;;;;;;0.20;0.20;;;;;;;;;;5032809;28;20138;-74
2023/03/14 06:20:47;;;;;;;0.08;0.08;;;;;;;;;;5032574;28;20167;-75
2023/03/14 06:23:13;;;;;;;1.08;0.30;;;;;;;;;;5033076;28;20599;-75
2023/03/14 06:25:39;;;;;;;0.10;0.10;;;;;;;;;;5030965;28;20025;-74
2023/03/14 06:28:06;;;;;;;0.10;0.10;;;;;;;;;;5031006;28;20439;-74
2023/03/14 06:30:32;;;;;;;0.52;0.43;;;;;;;;;;5032490;28;20421;-74
2023/03/14 06:32:59;;;;;;;0.17;0.17;;;;;;;;;;5031191;28;20022;-74
2023/03/14 06:35:25;;;;;;;0.47;0.20;;;;;;;;;;5032368;28;20064;-74
2023/03/14 06:37:51;;;;;;;0.20;0.20;;;;;;;;;;5032227;28;20022;-74
2023/03/14 06:40:18;;;;;;;0.28;0.13;;;;;;;;;;5032130;28;20055;-74
2023/03/14 06:42:44;;;;;;;0.20;0.20;;;;;;;;;;5032173;28;20022;-74
2023/03/14 06:45:11;;;;;;;0.28;0.08;;;;;;;;;;5032156;28;20422;-74
2023/03/14 06:47:38;;;;;;;0.10;0.10;;;;;;;;;;5030717;28;20021;-74
2023/03/14 06:50:05;;;;;;;0.70;0.30;;;;;;;;;;5030852;28;20025;-74
2023/03/14 06:52:31;;;;;;;0.13;0.10;;;;;;;;;;5030913;28;20045;-75
2023/03/14 06:54:57;;;;;;;0.73;0.35;;;;;;;;;;5030555;28;20326;-75
2023/03/14 06:57:23;;;;;;;0.05;0.05;;;;;;;;;;5031578;28;20226;-74
2023/03/14 06:59:49;;;;;;;0.10;0.10;;;;;;;;;;5030508;28;20321;-75
2023/03/14 07:02:15;;;;;;;0.10;0.10;;;;;;;;;;5031945;28;20536;-75
2023/03/14 07:04:41;;;;;;;0.10;0.10;;;;;;;;;;5031646;28;20045;-75
2023/03/14 07:07:07;;;;;;;0.05;0.05;;;;;;;;;;5033497;28;20021;-74
2023/03/14 07:09:34;;;;;;;0.70;0.20;;;;;;;;;;5022584;28;20084;-74
2023/03/14 07:12:00;;;;;;;0.10;0.10;;;;;;;;;;5035509;28;20075;-74
2023/03/14 07:14:26;;;;;;;1.45;0.10;;;;;;;;;;5029859;28;20029;-74
2023/03/14 07:16:52;;;;;;;0.17;0.17;;;;;;;;;;5028498;28;20052;-73
2023/03/14 07:19:18;;;;;;;0.10;0.10;;;;;;;;;;5026722;28;20021;-74
2023/03/14 07:21:44;;;;;;;0.10;0.10;;;;;;;;;;5028014;28;20029;-74
2023/03/14 07:24:10;;;;;;;0.10;0.10;;;;;;;;;;5027007;28;20029;-74
2023/03/14 07:26:36;;;;;;;0.10;0.10;;;;;;;;;;5026915;28;20021;-73
2023/03/14 07:29:05;;;;;;;0.10;0.10;;;;;;;;;;5027280;28;20461;-75
2023/03/14 07:31:31;;;;;;;0.35;0.10;;;;;;;;;;5027876;28;20025;-74
2023/03/14 07:33:57;;;;;;;0.00;0.00;;;;;;;;;;5027428;28;20021;-74
2023/03/14 07:36:23;;;;;;;0.10;0.10;;;;;;;;;;5027689;28;20044;-75
2023/03/14 07:38:49;;;;;;;0.10;0.10;;;;;;;;;;5027739;28;20437;-74
2023/03/14 07:41:15;;;;;;;0.10;0.10;;;;;;;;;;5027736;28;20025;-74
2023/03/14 07:43:41;;;;;;;0.10;0.10;;;;;;;;;;5027635;28;20061;-74
2023/03/14 07:46:08;;;;;;;0.05;0.05;;;;;;;;;;5027958;28;20065;-74
2023/03/14 07:48:34;;;;;;;0.22;0.22;;;;;;;;;;5028233;28;20045;-74
2023/03/14 07:51:00;;;;;;;0.10;0.10;;;;;;;;;;5028056;28;20875;-75
2023/03/14 07:53:26;;;;;;;0.00;0.00;;;;;;;;;;5027581;28;20519;-74
2023/03/14 07:55:53;;;;;;;0.05;0.05;;;;;;;;;;5027201;28;20120;-74
2023/03/14 07:58:19;;;;;;;0.10;0.10;;;;;;;;;;5027947;28;20104;-74
2023/03/14 08:00:45;;;;;;;0.10;0.10;;;;;;;;;;5027131;28;20053;-74
2023/03/14 08:03:11;;;;;;;0.10;0.10;;;;;;;;;;5028158;28;20211;-74
2023/03/14 08:05:38;;;;;;;0.08;0.08;;;;;;;;;;5027463;28;20223;-73
2023/03/14 08:08:04;;;;;;;0.32;0.10;;;;;;;;;;5026720;28;20018;-73
2023/03/14 08:10:30;;;;;;;0.00;0.00;;;;;;;;;;5027455;28;20117;-74
2023/03/14 08:12:57;;;;;;;1.45;0.10;;;;;;;;;;5026762;28;20029;-74
2023/03/14 08:15:24;;;;;;;0.98;0.40;;;;;;;;;;5026579;28;20037;-74
2023/03/14 08:17:51;;;;;;;0.00;0.00;;;;;;;;;;5027014;28;20092;-75
2023/03/14 08:20:24;;;;;;;0.00;0.00;;;;;;;;;;5036122;28;20021;-74
2023/03/14 08:22:50;;;;;;;0.03;0.03;;;;;;;;;;5026658;28;20032;-73
2023/03/14 08:25:17;;;;;;;0.00;0.00;;;;;;;;;;5026879;28;20021;-74
2023/03/14 08:27:43;;;;;;;0.00;0.00;;;;;;;;;;5027419;28;20056;-74
2023/03/14 08:30:10;;;;;;;0.20;0.10;;;;;;;;;;5031010;28;20030;-74
2023/03/14 08:32:37;;;;;;;3.50;0.35;;;;;;;;;;5026536;28;20053;-74
2023/03/14 08:35:03;;;;;;;0.20;0.20;;;;;;;;;;5028149;28;20026;-73
2023/03/14 08:37:31;;;;;;;0.10;0.10;;;;;;;;;;5029211;28;20051;-74
2023/03/14 08:39:57;;;;;;;0.22;0.00;;;;;;;;;;5028935;28;20026;-74
2023/03/14 08:42:23;;;;;;;0.10;0.10;;;;;;;;;;5028273;28;20029;-74
2023/03/14 08:44:50;;;;;;;0.10;0.10;;;;;;;;;;5025599;28;20021;-74
2023/03/14 08:47:16;;;;;;;0.10;0.10;;;;;;;;;;5027646;28;20128;-74
2023/03/14 08:49:42;;;;;;;0.10;0.10;;;;;;;;;;5027787;28;20026;-73
2023/03/14 08:52:08;;;;;;;0.00;0.00;;;;;;;;;;5027739;28;20052;-74
2023/03/14 08:54:34;;;;;;;0.10;0.10;;;;;;;;;;5028008;28;20478;-74
2023/03/14 08:57:00;;;;;;;0.10;0.10;;;;;;;;;;5027592;28;20021;-73
2023/03/14 08:59:26;;;;;;;0.20;0.10;;;;;;;;;;5027885;28;20030;-73
2023/03/14 09:01:54;;;;;;;0.00;0.00;;;;;;;;;;5028187;28;20053;-74
2023/03/14 09:04:20;;;;;;;0.10;0.10;;;;;;;;;;5029617;28;20104;-73
2023/03/14 09:06:46;;;;;;;0.00;0.00;;;;;;;;;;5028344;28;20354;-74
2023/03/14 09:09:13;;;;;;;0.00;0.00;;;;;;;;;;5029222;28;20076;-74
2023/03/14 09:11:39;;;;;;;0.10;0.10;;;;;;;;;;5028908;28;20024;-74
2023/03/14 09:14:05;;;;;;;0.05;0.05;;;;;;;;;;5029532;28;20030;-73
2023/03/14 09:16:31;;;;;;;0.17;0.10;;;;;;;;;;5029753;28;20045;-74
2023/03/14 09:18:59;;;;;;;0.10;0.10;;;;;;;;;;5028088;28;20021;-73
2023/03/14 09:21:25;;;;;;;0.28;0.10;;;;;;;;;;5029558;28;20104;-73
2023/03/14 09:23:54;;;;;;;0.10;0.10;;;;;;;;;;5029274;28;20163;-73
2023/03/14 09:26:20;;;;;;;0.10;0.10;;;;;;;;;;5028916;28;20021;-73
2023/03/14 09:28:46;;;;;;;0.10;0.10;;;;;;;;;;5029523;28;20132;-74
2023/03/14 09:31:13;;;;;;;0.00;0.00;;;;;;;;;;5033262;28;20514;-73
2023/03/14 09:33:39;;;;;;;0.10;0.10;;;;;;;;;;5033546;28;20026;-73
2023/03/14 09:36:07;;;;;;;0.20;0.10;;;;;;;;;;5032106;28;20056;-74
2023/03/14 09:38:32;;;;;;;0.38;0.10;;;;;;;;;;5033254;28;20039;-73
2023/03/14 09:40:59;;;;;;;0.10;0.10;;;;;;;;;;5033353;28;20134;-73
2023/03/14 09:43:27;;;;;;;0.00;0.00;;;;;;;;;;5033406;28;20085;-74
2023/03/14 09:45:53;;;;;;;0.10;0.10;;;;;;;;;;5031873;28;20036;-73
2023/03/14 09:48:25;;;;;;;0.08;0.08;;;;;;;;;;5033230;28;20030;-73
2023/03/14 09:50:52;;;;;;;0.10;0.10;;;;;;;;;;5033036;28;20056;-74
2023/03/14 09:53:20;;;;;;;0.10;0.10;;;;;;;;;;5032035;28;20068;-73
2023/03/14 09:55:48;;;;;;;0.10;0.10;;;;;;;;;;5032993;28;20041;-73
2023/03/14 09:58:16;;;;;;;0.22;0.22;;;;;;;;;;5033109;28;20533;-73
2023/03/14 10:00:42;;;;;;;0.10;0.10;;;;;;;;;;5032765;28;20113;-73
2023/03/14 10:03:14;;;;;;;0.10;0.10;;;;;;;;;;5031267;28;20453;-73
2023/03/14 10:05:41;;;;;;;0.10;0.10;;;;;;;;;;5032689;28;20029;-73
2023/03/14 10:08:10;;;;;;;0.00;0.00;;;;;;;;;;5031456;28;20029;-74
2023/03/14 10:10:36;;;;;;;0.08;0.08;;;;;;;;;;5032972;28;20025;-73
2023/03/14 10:13:14;;;;;;;0.10;0.10;;;;;;;;;;5031247;28;20041;-73
2023/03/14 10:15:40;;;;;;;0.10;0.10;;;;;;;;;;5032790;28;20037;-73
2023/03/14 10:18:12;;;;;;;0.10;0.10;;;;;;;;;;5031048;28;20468;-73
2023/03/14 10:20:42;;;;;;;0.17;0.17;;;;;;;;;;5032436;28;20025;-73
2023/03/14 10:23:17;;;;;;;0.10;0.10;;;;;;;;;;5031365;28;20025;-73
2023/03/14 10:25:44;;;;;;;0.10;0.10;;;;;;;;;;5032532;28;20025;-73
2023/03/14 10:28:26;;;;;;;0.03;0.03;;;;;;;;;;5031020;28;20051;-74
2023/03/14 10:30:52;;;;;;;0.05;0.05;;;;;;;;;;5032812;28;20253;-74
2023/03/14 10:33:21;;;;;;;0.10;0.10;;;;;;;;;;5032148;28;20310;-74
2023/03/14 10:35:57;;;;;;;0.15;0.10;;;;;;;;;;5033222;28;20034;-74
2023/03/14 10:38:35;;;;;;;0.10;0.10;;;;;;;;;;5032097;28;20104;-74
2023/03/14 10:41:01;;;;;;;0.10;0.10;;;;;;;;;;5031848;28;20018;-74
2023/03/14 10:43:35;;;;;;;0.00;0.00;;;;;;;;;;5031662;28;20083;-74
2023/03/14 10:46:02;;;;;;;0.13;0.13;;;;;;;;;;5032428;28;20017;-74
2023/03/14 10:48:31;;;;;;;0.30;0.30;;;;;;;;;;5032351;28;20021;-73
2023/03/14 10:51:30;;;;;;;0.13;0.13;;;;;;;;;;5032272;28;20119;-74
2023/03/14 10:53:57;;;;;;;0.10;0.10;;;;;;;;;;5019867;28;20041;-73
2023/03/14 10:56:25;;;;;;;0.10;0.10;;;;;;;;;;5031964;28;20339;-74
2023/03/14 10:58:52;;;;;;;0.15;0.15;;;;;;;;;;5031776;28;20049;-74
2023/03/14 11:01:28;;;;;;;0.30;0.20;;;;;;;;;;5032024;28;20030;-74
2023/03/14 11:03:57;;;;;;;1.00;0.32;;;;;;;;;;5030306;28;20273;-74
2023/03/14 11:06:26;;;;;;;0.30;0.30;;;;;;;;;;5031883;28;20026;-74
2023/03/14 11:08:57;;;;;;;0.30;0.30;;;;;;;;;;5031925;28;20021;-74
2023/03/14 11:11:25;;;;;;;0.30;0.30;;;;;;;;;;5031804;28;20053;-74
2023/03/14 11:13:58;;;;;;;0.20;0.20;;;;;;;;;;5030519;28;20213;-74
2023/03/14 11:16:27;;;;;;;1.80;0.50;;;;;;;;;;5030122;28;20037;-74
2023/03/14 11:19:05;;;;;;;0.25;0.25;;;;;;;;;;5031540;28;20458;-74
2023/03/14 11:21:31;;;;;;;0.30;0.30;;;;;;;;;;5031331;28;20075;-73
2023/03/14 11:24:14;;;;;;;0.20;0.20;;;;;;;;;;5029855;28;20117;-74
2023/03/14 11:26:54;;;;;;;0.80;0.40;;;;;;;;;;5031854;28;20064;-74
2023/03/14 11:29:26;;;;;;;0.77;0.75;;;;;;;;;;5031535;28;20069;-74
2023/03/14 11:31:55;;;;;;;2.22;0.28;;;;;;;;;;5032302;28;20056;-74
2023/03/14 11:34:21;;;;;;;;;;;;;;;;;;5030242;28;20037;-74
2023/03/14 11:36:56;;;;;;;0.30;0.30;;;;;;;;;;5032296;28;19913;-74
2023/03/14 11:39:24;;;;;;;0.68;0.60;;;;;;;;;;5032480;28;20083;-74
2023/03/14 11:41:52;;;;;;;0.68;0.40;;;;;;;;;;5031874;28;20115;-74
2023/03/14 11:44:21;;;;;;;2.15;0.50;;;;;;;;;;5031877;28;20052;-73
2023/03/14 11:46:50;;;;;;;2.58;0.70;;;;;;;;;;5030058;28;20029;-73
2023/03/14 11:49:32;;;;;;;3.58;0.90;;;;;;;;;;5029579;28;20026;-73
2023/03/14 11:52:03;;;;;;;1.38;0.52;;;;;;;;;;5030738;28;20068;-74
2023/03/14 11:54:29;;;;;;;0.73;0.50;;;;;;;;;;5029840;28;20029;-74
2023/03/14 11:57:00;;;;;;;2.35;0.50;;;;;;;;;;5029169;28;20057;-73
2023/03/14 11:59:44;;;;;;;2.38;1.00;;;;;;;;;;5030792;28;20470;-73
2023/03/14 12:02:29;;;;;;;0.65;0.65;;;;;;;;;;5029681;28;20029;-74
2023/03/14 12:05:04;;;;;;;1.70;0.45;;;;;;;;;;5029810;28;20087;-73
2023/03/14 12:07:35;;;;;;;1.65;0.70;;;;;;;;;;5031256;28;20533;-74
2023/03/14 12:10:02;;;;;;;1.08;0.43;;;;;;;;;;5030838;28;20044;-73
2023/03/14 12:12:30;;;;;;;2.15;0.65;;;;;;;;;;5030902;28;20049;-74
2023/03/14 12:15:00;;;;;;;1.25;0.82;;;;;;;;;;5031280;28;20029;-74
2023/03/14 12:17:34;;;;;;;2.08;0.80;;;;;;;;;;5029293;28;20430;-74
2023/03/14 12:20:01;;;;;;;0.95;0.50;;;;;;;;;;5030350;28;20036;-74
2023/03/14 12:22:29;;;;;;;6.15;0.75;;;;;;;;;;5030322;28;20033;-74
2023/03/14 12:25:01;;;;;;;0.40;0.38;;;;;;;;;;5028935;28;20505;-73
2023/03/14 12:27:39;;;;;;;3.72;1.08;;;;;;;;;;5030088;28;20080;-74
2023/03/14 12:30:10;;;;;;;3.00;0.70;;;;;;;;;;5028753;28;20037;-74
2023/03/14 12:32:36;;;;;;;0.88;0.60;;;;;;;;;;5030026;28;20371;-74
2023/03/14 12:35:08;;;;;;;3.90;0.95;;;;;;;;;;5030023;28;20041;-74
2023/03/14 12:37:36;;;;;;;0.35;0.35;;;;;;;;;;5029973;28;20061;-74
2023/03/14 12:40:13;;;;;;;2.38;0.40;;;;;;;;;;5030093;28;20030;-74
2023/03/14 12:42:43;;;;;;;1.33;0.80;;;;;;;;;;5029954;28;20025;-74
2023/03/14 12:45:23;;;;;;;3.42;0.47;;;;;;;;;;5029966;28;20022;-74
2023/03/14 12:47:52;;;;;;;4.38;0.80;;;;;;;;;;5030064;28;20025;-74
2023/03/14 12:50:24;;;;;;;1.08;1.00;;;;;;;;;;5030429;28;20478;-74
2023/03/14 12:52:59;;;;;;;3.47;0.60;;;;;;;;;;5029717;28;20428;-74
2023/03/14 12:55:28;;;;;;;1.92;0.57;;;;;;;;;;5030131;28;20034;-74
2023/03/14 12:57:54;;;;;;;1.90;0.40;;;;;;;;;;5029609;28;20029;-74
2023/03/14 13:00:21;;;;;;;2.08;0.70;;;;;;;;;;5028318;28;20033;-74
2023/03/14 13:02:48;;;;;;;3.78;1.10;;;;;;;;;;5028255;28;20033;-74
2023/03/14 13:05:14;;;;;;;0.95;0.60;;;;;;;;;;5029431;28;20021;-74
2023/03/14 13:07:46;;;;;;;1.48;0.93;;;;;;;;;;5028470;28;20056;-74
2023/03/14 13:10:20;;;;;;;1.40;1.05;;;;;;;;;;5029800;28;20493;-74
2023/03/14 13:12:46;;;;;;;5.25;0.65;;;;;;;;;;5029685;28;20141;-74
2023/03/14 13:15:32;;;;;;;0.47;0.38;;;;;;;;;;5029931;28;20592;-74
2023/03/14 13:18:11;;;;;;;0.93;0.57;;;;;;;;;;5025248;28;20160;-74
2023/03/14 13:20:39;;;;;;;1.02;0.63;;;;;;;;;;5029430;28;20029;-74
2023/03/14 13:23:05;;;;;;;1.80;0.52;;;;;;;;;;5029401;28;20470;-74
2023/03/14 13:25:35;;;;;;;1.73;0.60;;;;;;;;;;5029394;28;20546;-74
2023/03/14 13:28:01;;;;;;;1.80;0.40;;;;;;;;;;5029558;28;20061;-74
2023/03/14 13:30:29;;;;;;;8.80;1.60;;;;;;;;;;5028223;28;20030;-74
2023/03/14 13:32:56;;;;;;;0.52;0.35;;;;;;;;;;5028309;28;20366;-74
2023/03/14 13:35:27;;;;;;;0.98;0.52;;;;;;;;;;5029724;28;20037;-74
2023/03/14 13:37:55;;;;;;;3.15;0.80;;;;;;;;;;5029455;28;20022;-75
2023/03/14 13:40:25;;;;;;;1.55;0.50;;;;;;;;;;5029174;28;20371;-75
2023/03/14 13:42:59;;;;;;;0.50;0.50;;;;;;;;;;5029730;28;20285;-75
2023/03/14 13:45:25;;;;;;;0.75;0.63;;;;;;;;;;5027924;28;20160;-75
2023/03/14 13:47:52;;;;;;;0.82;0.40;;;;;;;;;;5028147;28;20382;-75
2023/03/14 13:50:19;;;;;;;1.95;0.85;;;;;;;;;;5029320;28;20026;-75
2023/03/14 13:52:46;;;;;;;1.20;0.50;;;;;;;;;;5027985;28;20032;-75
2023/03/14 13:55:17;;;;;;;1.00;0.45;;;;;;;;;;5026576;28;20045;-75
2023/03/14 13:57:54;;;;;;;0.30;0.30;;;;;;;;;;5025723;28;20037;-75
2023/03/14 14:00:23;;;;;;;1.52;0.50;;;;;;;;;;5025088;28;20025;-74
2023/03/14 14:02:49;;;;;;;2.05;0.57;;;;;;;;;;5027663;28;20083;-74
2023/03/14 14:05:16;;;;;;;2.33;0.40;;;;;;;;;;5027529;28;20018;-74
2023/03/14 14:07:44;;;;;;;0.52;0.30;;;;;;;;;;5027939;28;20029;-74
2023/03/14 14:10:12;;;;;;;0.20;0.20;;;;;;;;;;5026373;28;20057;-74
2023/03/14 14:12:40;;;;;;;2.05;0.40;;;;;;;;;;5027300;28;20056;-74
2023/03/14 14:15:06;;;;;;;1.55;0.65;;;;;;;;;;5027488;28;20107;-74
2023/03/14 14:17:35;;;;;;;0.88;0.57;;;;;;;;;;5029453;28;20088;-74
2023/03/14 14:20:04;;;;;;;1.75;0.45;;;;;;;;;;5029314;28;20017;-74
2023/03/14 14:22:30;;;;;;;3.40;0.70;;;;;;;;;;5029904;28;20028;-74
2023/03/14 14:24:58;;;;;;;2.58;0.40;;;;;;;;;;5029871;28;20048;-74
2023/03/14 14:27:34;;;;;;;0.60;0.35;;;;;;;;;;5030968;28;20032;-74
2023/03/14 14:30:23;;;;;;;2.42;0.93;;;;;;;;;;5028911;28;20037;-74
2023/03/14 14:32:50;;;;;;;1.27;0.63;;;;;;;;;;5029581;28;20044;-74
2023/03/14 14:35:33;;;;;;;0.85;0.40;;;;;;;;;;5029368;28;20037;-74
2023/03/14 14:37:59;;;;;;;0.88;0.43;;;;;;;;;;5028409;28;20548;-74
2023/03/14 14:40:27;;;;;;;3.97;0.68;;;;;;;;;;5030952;28;20029;-74
2023/03/14 14:42:53;;;;;;;0.45;0.40;;;;;;;;;;5030768;28;20040;-74
2023/03/14 14:45:21;;;;;;;0.30;0.30;;;;;;;;;;5028235;28;20017;-74
2023/03/14 14:47:51;;;;;;;1.75;0.50;;;;;;;;;;5030899;28;20127;-74